createdAt,value
2023-04-09T00:04:05.453Z,35.65
2023-04-09T00:05:35.515Z,35.00
2023-04-09T00:16:13.735Z,34.33
2023-04-09T00:18:07.918Z,35.08
2023-04-09T00:29:10.004Z,33.97
2023-04-09T00:30:46.794Z,33.55
2023-04-09T00:44:45.931Z,37.22
2023-04-09T00:54:22.996Z,35.22
2023-04-09T01:17:20.536Z,34.55
2023-04-09T01:39:10.469Z,35.30
2023-04-09T01:48:35.324Z,36.85
2023-04-09T02:13:08.073Z,36.97
2023-04-09T02:47:45.984Z,40.35
2023-04-09T02:49:12.096Z,40.70
2023-04-09T02:50:34.756Z,42.45
2023-04-09T02:52:03.205Z,41.38
2023-04-09T02:53:26.460Z,41.08
2023-04-09T02:54:48.113Z,41.53
2023-04-09T02:56:13.106Z,42.05
2023-04-09T02:57:34.405Z,42.33
2023-04-09T02:58:56.730Z,42.05
2023-04-09T03:00:18.452Z,41.83
2023-04-09T03:01:40.978Z,42.58
2023-04-09T03:03:05.009Z,42.92
2023-04-09T03:04:29.576Z,42.60
2023-04-09T03:05:52.012Z,43.88
2023-04-09T03:07:13.754Z,42.53
2023-04-09T03:08:39.044Z,41.42
2023-04-09T03:10:00.189Z,43.08
2023-04-09T03:11:22.789Z,42.60
2023-04-09T03:12:44.973Z,42.60
2023-04-09T03:14:07.460Z,42.80
2023-04-09T03:15:28.634Z,43.63
2023-04-09T03:16:51.192Z,43.78
2023-04-09T03:18:15.873Z,43.85
2023-04-09T03:19:38.266Z,42.30
2023-04-09T03:25:02.512Z,39.55
2023-04-09T03:30:02.749Z,39.40
2023-04-09T03:30:56.037Z,41.47
2023-04-09T03:31:32.935Z,43.85
2023-04-09T03:33:08.180Z,42.42
2023-04-09T03:39:09.413Z,39.45
2023-04-09T04:09:56.261Z,44.13
2023-04-09T04:12:47.228Z,42.92
2023-04-09T04:14:48.778Z,45.80
2023-04-09T04:16:24.155Z,44.13
2023-04-09T04:17:46.454Z,46.70
2023-04-09T04:19:32.609Z,43.50
2023-04-09T04:20:56.332Z,44.83
2023-04-09T04:22:31.523Z,44.05
2023-04-09T04:23:59.562Z,46.03
2023-04-09T04:25:29.325Z,43.05
2023-04-09T04:26:52.484Z,44.67
2023-04-09T04:28:16.448Z,46.17
2023-04-09T04:29:39.187Z,46.88
2023-04-09T04:31:17.401Z,47.03
2023-04-09T04:32:38.969Z,47.85
2023-04-09T04:34:04.908Z,45.38
2023-04-09T04:35:26.570Z,46.50
2023-04-09T04:37:03.562Z,47.47
2023-04-09T04:38:28.203Z,45.45
2023-04-09T04:39:59.338Z,46.15
2023-04-09T04:41:24.618Z,46.97
2023-04-09T04:42:53.566Z,49.08
2023-04-09T04:44:18.012Z,48.28
2023-04-09T04:45:41.364Z,45.90
2023-04-09T04:47:07.317Z,46.05
2023-04-09T04:48:32.231Z,45.90
2023-04-09T04:49:55.095Z,48.67
2023-04-09T04:53:02.923Z,49.33
2023-04-09T04:56:15.796Z,48.47
2023-04-09T04:57:53.827Z,48.75
2023-04-09T04:59:23.020Z,51.72
2023-04-09T05:00:53.927Z,54.00
2023-04-09T05:02:19.237Z,59.25
2023-04-09T05:04:04.728Z,51.95
2023-04-09T05:05:29.581Z,49.78
2023-04-09T05:06:53.209Z,51.00
2023-04-09T05:08:19.949Z,47.42
2023-04-09T05:09:45.725Z,47.17
2023-04-09T05:11:08.228Z,48.78
2023-04-09T05:12:43.422Z,47.25
2023-04-09T05:14:08.063Z,46.40
2023-04-09T05:15:29.188Z,46.35
2023-04-09T05:18:19.221Z,44.50
2023-04-09T05:19:41.961Z,46.65
2023-04-09T05:21:12.123Z,47.25
2023-04-09T05:22:40.314Z,46.47
2023-04-09T05:24:08.489Z,45.63
2023-04-09T05:25:30.904Z,48.72
2023-04-09T05:26:56.244Z,47.00
2023-04-09T05:28:19.410Z,46.28
2023-04-09T05:29:45.722Z,48.50
2023-04-09T05:31:13.267Z,46.45
2023-04-09T05:32:42.383Z,47.88
2023-04-09T05:34:05.136Z,49.35
2023-04-09T05:35:35.358Z,47.30
2023-04-09T05:37:01.113Z,49.50
2023-04-09T05:38:26.942Z,48.63
2023-04-09T05:43:03.129Z,47.50
2023-04-09T05:44:47.017Z,45.50
2023-04-09T05:46:14.344Z,46.65
2023-04-09T05:47:40.031Z,48.97
2023-04-09T05:49:14.457Z,49.15
2023-04-09T05:50:51.465Z,48.30
2023-04-09T05:52:17.267Z,47.85
2023-04-09T05:53:39.878Z,50.20
2023-04-09T05:55:01.331Z,52.53
2023-04-09T05:56:37.993Z,49.45
2023-04-09T05:58:12.911Z,51.58
2023-04-09T05:59:44.501Z,52.17
2023-04-09T06:01:11.687Z,48.63
2023-04-09T06:02:36.333Z,52.17
2023-04-09T06:04:01.807Z,52.58
2023-04-09T06:05:24.794Z,53.67
2023-04-09T06:07:00.284Z,54.08
2023-04-09T06:08:36.460Z,51.55
2023-04-09T06:11:07.040Z,51.72
2023-04-09T06:12:30.100Z,52.10
2023-04-09T06:14:42.801Z,51.38
2023-04-09T06:18:42.769Z,52.75
2023-04-09T06:20:11.077Z,50.85
2023-04-09T06:21:51.330Z,52.75
2023-04-09T06:24:11.198Z,53.67
2023-04-09T06:25:46.417Z,52.30
2023-04-09T06:27:14.287Z,54.90
2023-04-09T06:28:46.756Z,54.20
2023-04-09T06:30:53.458Z,54.30
2023-04-09T06:32:28.395Z,51.30
2023-04-09T06:35:02.844Z,54.05
2023-04-09T06:37:49.685Z,52.05
2023-04-09T06:39:14.172Z,55.80
2023-04-09T06:40:40.695Z,56.45
2023-04-09T06:42:05.627Z,54.40
2023-04-09T06:43:44.465Z,53.03
2023-04-09T06:45:08.873Z,57.92
2023-04-09T06:46:31.733Z,52.15
2023-04-09T06:48:19.282Z,49.38
2023-04-09T06:49:54.327Z,52.45
2023-04-09T06:51:19.474Z,54.67
2023-04-09T06:52:43.206Z,51.92
2023-04-09T06:54:05.940Z,53.08
2023-04-09T06:56:30.397Z,56.53
2023-04-09T06:57:54.132Z,52.97
2023-04-09T06:59:21.963Z,57.08
2023-04-09T07:00:50.184Z,54.05
2023-04-09T07:02:15.794Z,53.50
2023-04-09T07:03:39.036Z,50.42
2023-04-09T07:05:43.197Z,48.90
2023-04-09T07:07:05.555Z,51.03
2023-04-09T07:08:38.510Z,54.13
2023-04-09T07:10:01.726Z,53.15
2023-04-09T07:11:24.437Z,52.70
2023-04-09T07:12:46.949Z,51.22
2023-04-09T07:14:11.884Z,54.00
2023-04-09T07:15:34.461Z,55.83
2023-04-09T07:17:14.384Z,51.78
2023-04-09T07:18:36.575Z,52.63
2023-04-09T07:20:01.954Z,55.83
2023-04-09T07:21:24.163Z,50.47
2023-04-09T07:22:46.391Z,51.03
2023-04-09T07:24:10.342Z,53.53
2023-04-09T07:25:34.940Z,50.80
2023-04-09T07:26:57.577Z,52.53
2023-04-09T07:28:20.027Z,52.53
2023-04-09T07:29:46.134Z,52.92
2023-04-09T07:31:13.391Z,53.20
2023-04-09T07:32:40.436Z,50.60
2023-04-09T07:34:06.348Z,51.38
2023-04-09T07:35:29.009Z,51.70
2023-04-09T07:36:54.119Z,52.08
2023-04-09T07:39:18.853Z,50.55
2023-04-09T07:40:42.815Z,47.20
2023-04-09T07:45:45.226Z,45.90
2023-04-09T07:54:42.645Z,47.55
2023-04-09T07:56:10.001Z,46.90
2023-04-09T07:57:33.742Z,49.63
2023-04-09T07:59:03.088Z,51.30
2023-04-09T08:00:27.481Z,46.97
2023-04-09T08:04:14.452Z,48.25
2023-04-09T08:05:41.899Z,46.30
2023-04-09T08:10:23.926Z,48.40
2023-04-09T08:19:43.270Z,47.53
2023-04-09T08:46:13.071Z,45.00
2023-04-09T08:48:00.287Z,44.30
2023-04-09T08:49:40.967Z,45.13
2023-04-09T08:51:06.642Z,48.13
2023-04-09T08:52:54.602Z,46.20
2023-04-09T08:54:19.944Z,44.78
2023-04-09T08:55:46.843Z,45.33
2023-04-09T08:57:12.621Z,47.20
2023-04-09T08:58:59.688Z,47.10
2023-04-09T09:00:24.476Z,44.67
2023-04-09T09:01:54.573Z,44.10
2023-04-09T09:12:55.780Z,44.83
2023-04-09T09:14:21.454Z,44.13
2023-04-09T09:15:42.989Z,44.92
2023-04-09T09:17:08.679Z,44.55
2023-04-09T09:19:24.955Z,47.25
2023-04-09T09:20:46.744Z,44.72
2023-04-09T09:22:15.695Z,44.00
2023-04-09T09:24:27.658Z,45.58
2023-04-09T09:26:21.330Z,44.35
2023-04-09T09:27:54.844Z,42.85
2023-04-09T09:29:21.540Z,43.03
2023-04-09T09:30:44.714Z,44.70
2023-04-09T09:32:15.048Z,45.97
2023-04-09T09:33:38.130Z,43.40
2023-04-09T09:35:07.381Z,44.33
2023-04-09T09:37:10.771Z,41.80
2023-04-09T09:39:21.279Z,43.97
2023-04-09T09:40:43.926Z,42.63
2023-04-09T09:42:12.191Z,43.13
2023-04-09T09:43:46.970Z,42.90
2023-04-09T09:45:19.842Z,44.22
2023-04-09T09:46:49.180Z,45.85
2023-04-09T09:48:16.212Z,44.42
2023-04-09T09:49:41.158Z,44.50
2023-04-09T09:54:36.816Z,41.70
2023-04-09T09:56:01.772Z,40.90
2023-04-09T09:57:38.023Z,40.53
2023-04-09T09:59:08.979Z,42.97
2023-04-09T10:00:34.941Z,43.95
2023-04-09T10:02:05.282Z,43.50
2023-04-09T10:06:22.579Z,42.85
2023-04-09T10:07:50.943Z,43.10
2023-04-09T10:31:13.483Z,43.22
2023-04-09T10:33:48.716Z,42.05
2023-04-09T10:35:27.625Z,44.90
2023-04-09T10:37:17.201Z,46.70
2023-04-09T10:39:13.773Z,49.10
2023-04-09T10:41:17.286Z,50.15
2023-04-09T10:42:50.887Z,49.10
2023-04-09T10:44:28.225Z,50.78
2023-04-09T10:45:53.687Z,50.15
2023-04-09T10:47:39.739Z,52.33
2023-04-09T10:49:13.809Z,50.22
2023-04-09T10:50:40.418Z,49.42
2023-04-09T10:52:30.832Z,51.58
2023-04-09T10:54:47.277Z,45.05
2023-04-09T10:56:18.123Z,53.92
2023-04-09T11:00:56.286Z,51.63
2023-04-09T11:12:03.974Z,49.33
2023-04-09T11:24:05.503Z,46.70
2023-04-09T12:45:40.827Z,46.15
2023-04-09T12:55:40.410Z,47.58
2023-04-09T13:31:28.093Z,46.92
2023-04-09T13:33:29.879Z,45.42
2023-04-09T13:46:33.856Z,45.58
2023-04-09T14:07:31.022Z,45.88
2023-04-09T14:19:51.640Z,44.05
2023-04-09T14:24:42.763Z,45.42
2023-04-09T14:26:08.241Z,47.10
2023-04-09T14:27:31.077Z,46.38
2023-04-09T14:28:53.630Z,47.40
2023-04-09T14:41:19.317Z,47.47
2023-04-09T14:43:07.884Z,49.60
2023-04-09T14:44:33.527Z,50.50
2023-04-09T14:47:23.296Z,48.13
2023-04-09T15:15:05.226Z,47.22
2023-04-09T15:19:23.082Z,48.20
2023-04-09T15:20:48.073Z,49.38
2023-04-09T15:22:09.946Z,49.78
2023-04-09T15:27:17.176Z,50.33
2023-04-09T15:28:39.600Z,51.95
2023-04-09T15:30:02.148Z,52.70
2023-04-09T15:31:24.370Z,55.30
2023-04-09T15:32:59.124Z,55.42
2023-04-09T15:34:55.997Z,54.03
2023-04-09T15:36:18.460Z,52.72
2023-04-09T15:38:37.538Z,53.10
2023-04-09T15:40:21.649Z,51.65
2023-04-09T15:41:43.818Z,54.20
2023-04-09T15:43:05.852Z,56.92
2023-04-09T15:44:28.520Z,55.75
2023-04-09T15:45:51.624Z,57.58
2023-04-09T15:47:14.140Z,54.53
2023-04-09T15:48:36.788Z,54.45
2023-04-09T15:50:05.442Z,51.35
2023-04-09T15:51:31.429Z,50.63
2023-04-09T15:52:56.395Z,47.88
2023-04-09T15:54:19.475Z,49.35
2023-04-09T15:55:44.776Z,49.08
2023-04-09T15:57:06.191Z,49.20
2023-04-09T15:58:29.040Z,49.97
2023-04-09T15:59:52.364Z,48.15
2023-04-09T16:01:55.267Z,52.55
2023-04-09T16:03:18.081Z,49.53
2023-04-09T16:04:43.687Z,50.10
2023-04-09T16:06:09.262Z,52.47
2023-04-09T16:07:32.025Z,52.53
2023-04-09T16:09:12.156Z,51.47
2023-04-09T16:10:53.925Z,50.25
2023-04-09T16:12:19.094Z,51.60
2023-04-09T16:13:42.428Z,50.28
2023-04-09T16:15:04.935Z,52.33
2023-04-09T16:16:27.358Z,51.78
2023-04-09T16:17:55.146Z,51.60
2023-04-09T16:19:18.433Z,53.08
2023-04-09T16:20:40.944Z,54.97
2023-04-09T16:22:07.614Z,59.17
2023-04-09T16:23:30.846Z,50.97
2023-04-09T16:24:56.497Z,56.20
2023-04-09T16:26:58.167Z,51.88
2023-04-09T16:28:22.001Z,52.67
2023-04-09T16:29:47.513Z,53.88
2023-04-09T16:31:23.763Z,55.22
2023-04-09T16:32:46.290Z,54.63
2023-04-09T16:37:36.788Z,49.92
2023-04-09T16:48:44.483Z,47.20
2023-04-09T17:42:00.989Z,49.28
2023-04-09T17:50:57.536Z,49.13
2023-04-09T17:54:16.210Z,50.97
2023-04-09T17:55:53.362Z,51.63
2023-04-09T17:57:17.313Z,50.33
2023-04-09T17:58:40.127Z,51.13
2023-04-09T18:00:05.671Z,51.53
2023-04-09T18:01:35.794Z,48.53
2023-04-09T18:02:59.075Z,51.45
2023-04-09T18:07:26.046Z,49.05
2023-04-09T18:08:51.614Z,49.38
2023-04-09T18:13:32.859Z,46.42
2023-04-09T18:14:56.955Z,44.38
2023-04-09T18:17:27.065Z,49.13
2023-04-09T18:23:19.206Z,46.22
2023-04-09T18:25:48.432Z,44.50
2023-04-09T18:27:12.832Z,44.58
2023-04-09T18:28:36.186Z,48.00
2023-04-09T18:31:27.699Z,49.40
2023-04-09T18:34:08.486Z,44.05
2023-04-09T18:35:46.330Z,44.30
2023-04-09T18:37:10.161Z,48.80
2023-04-09T18:39:57.591Z,47.33
2023-04-09T18:42:15.541Z,47.72
2023-04-09T18:44:08.581Z,49.25
2023-04-09T18:45:38.169Z,47.70
2023-04-09T18:55:33.603Z,48.83
2023-04-09T18:57:02.242Z,51.25
2023-04-09T18:58:25.211Z,52.75
2023-04-09T19:02:51.271Z,51.28
2023-04-09T19:51:25.517Z,42.88
2023-04-09T19:52:52.514Z,48.30
2023-04-09T19:54:18.187Z,47.17
2023-04-09T19:59:09.507Z,47.53
2023-04-09T20:00:57.143Z,46.78
2023-04-09T20:02:42.378Z,48.45
2023-04-09T20:04:10.233Z,48.78
2023-04-09T20:09:24.301Z,47.40
2023-04-09T20:49:09.905Z,47.88
2023-04-09T21:23:58.945Z,51.17
2023-04-09T21:26:17.088Z,52.10
2023-04-09T21:30:53.719Z,52.70
2023-04-09T21:32:58.883Z,55.88
2023-04-09T21:37:19.492Z,51.00
2023-04-09T21:39:02.414Z,55.75
2023-04-09T21:41:51.435Z,51.28
2023-04-09T21:43:31.115Z,52.50
2023-04-09T21:45:01.638Z,52.63
2023-04-09T21:46:47.416Z,55.03
2023-04-09T21:48:27.612Z,52.83
2023-04-09T21:50:02.439Z,52.63
2023-04-09T21:51:37.391Z,55.42
2023-04-09T21:53:06.509Z,54.28
2023-04-09T21:54:35.983Z,55.42
2023-04-09T21:56:04.197Z,56.17
2023-04-09T21:57:46.060Z,54.87
2023-04-09T21:59:39.157Z,54.80
2023-04-09T22:01:22.656Z,53.78
2023-04-09T22:02:54.172Z,54.80
2023-04-09T22:04:17.265Z,54.78
2023-04-09T22:05:42.178Z,54.47
2023-04-09T22:10:14.186Z,53.80
2023-04-09T22:11:53.100Z,54.80
2023-04-09T22:13:23.121Z,55.28
2023-04-09T22:14:46.240Z,56.88
2023-04-09T22:16:17.580Z,56.08
2023-04-09T22:17:44.826Z,56.50
2023-04-09T22:19:09.646Z,56.78
2023-04-09T22:20:32.771Z,55.40
2023-04-09T22:21:59.081Z,55.05
2023-04-09T22:23:21.782Z,56.17
2023-04-09T22:24:49.641Z,54.30
2023-04-09T22:26:16.598Z,55.45
2023-04-09T22:28:06.037Z,58.00
2023-04-09T22:29:37.341Z,53.15
2023-04-09T22:31:03.721Z,54.50
2023-04-09T22:32:43.506Z,54.92
2023-04-09T22:34:21.192Z,54.70
2023-04-09T22:35:49.197Z,56.40
2023-04-09T22:37:12.421Z,54.10
2023-04-09T22:38:38.592Z,53.97
2023-04-09T22:40:19.388Z,54.17
2023-04-09T22:41:44.824Z,55.30
2023-04-09T22:43:10.971Z,58.78
2023-04-09T22:44:40.445Z,54.65
2023-04-09T22:46:12.167Z,55.78
2023-04-09T22:51:14.443Z,55.40
2023-04-09T22:52:40.846Z,55.55
2023-04-09T22:55:44.527Z,55.65
2023-04-09T22:57:10.011Z,57.47
2023-04-09T22:58:32.314Z,59.50
2023-04-09T23:00:22.383Z,55.55
2023-04-09T23:01:49.239Z,58.38
2023-04-09T23:03:12.543Z,57.65
2023-04-09T23:04:56.025Z,58.40
2023-04-09T23:06:19.307Z,55.00
2023-04-09T23:07:48.904Z,57.40
2023-04-09T23:09:56.705Z,57.97
2023-04-09T23:11:27.413Z,55.70
2023-04-09T23:13:24.117Z,56.95
2023-04-09T23:16:05.692Z,57.63
2023-04-09T23:17:51.559Z,54.95
2023-04-09T23:19:56.214Z,55.60
2023-04-09T23:21:22.121Z,56.00
2023-04-09T23:26:03.080Z,57.28
2023-04-09T23:27:32.430Z,56.53
2023-04-09T23:29:09.650Z,56.55
2023-04-09T23:30:32.536Z,57.20
2023-04-09T23:35:03.123Z,57.17
2023-04-09T23:39:43.949Z,55.90
2023-04-09T23:41:22.469Z,57.40
2023-04-09T23:49:57.069Z,58.97
2023-04-09T23:52:15.101Z,59.50
2023-04-09T23:54:07.640Z,59.35
2023-04-09T23:55:41.318Z,58.78
2023-04-09T23:57:22.039Z,58.65
2023-04-09T23:59:47.511Z,60.45
